createdAt,value
2022-12-17T00:01:23.086Z,83.55
2022-12-17T00:06:44.067Z,83.36
2022-12-17T00:12:04.873Z,83.58
2022-12-17T00:17:25.364Z,83.66
2022-12-17T00:22:45.835Z,83.65
2022-12-17T00:28:06.681Z,83.52
2022-12-17T00:33:27.471Z,83.43
2022-12-17T00:38:48.582Z,83.55
2022-12-17T00:44:09.043Z,83.46
2022-12-17T00:49:30.373Z,83.77
2022-12-17T00:54:51.078Z,83.76
2022-12-17T01:00:12.496Z,83.97
2022-12-17T01:05:33.653Z,83.81
2022-12-17T01:10:54.747Z,83.95
2022-12-17T01:16:22.754Z,84.09
2022-12-17T01:21:57.131Z,83.68
2022-12-17T01:27:17.882Z,83.95
2022-12-17T01:32:38.840Z,84.04
2022-12-17T01:37:59.704Z,84.04
2022-12-17T01:43:20.726Z,83.46
2022-12-17T01:48:47.098Z,83.61
2022-12-17T01:54:10.470Z,83.89
2022-12-17T01:59:32.582Z,83.67
2022-12-17T02:04:53.552Z,83.89
2022-12-17T02:10:42.991Z,83.73
2022-12-17T02:16:24.565Z,83.78
2022-12-17T02:21:48.543Z,83.37
2022-12-17T02:27:15.868Z,83.74
2022-12-17T02:32:38.478Z,83.73
2022-12-17T02:38:08.641Z,83.78
2022-12-17T02:43:30.645Z,83.96
2022-12-17T02:48:51.476Z,83.71
2022-12-17T02:54:13.306Z,83.49
2022-12-17T02:59:34.397Z,83.66
2022-12-17T03:04:55.076Z,83.76
2022-12-17T03:10:15.926Z,83.69
2022-12-17T03:15:36.641Z,83.52
2022-12-17T03:20:57.430Z,83.48
2022-12-17T03:26:20.393Z,83.88
2022-12-17T03:31:42.052Z,83.80
2022-12-17T03:37:03.169Z,83.89
2022-12-17T03:42:24.006Z,84.14
2022-12-17T03:47:44.984Z,83.98
2022-12-17T03:53:05.991Z,84.02
2022-12-17T03:58:26.848Z,83.66
2022-12-17T04:03:47.683Z,83.59
2022-12-17T04:09:08.705Z,83.41
2022-12-17T04:14:30.268Z,83.34
2022-12-17T04:19:58.711Z,83.52
2022-12-17T04:25:19.280Z,83.93
2022-12-17T04:30:40.073Z,83.84
2022-12-17T04:36:00.985Z,83.44
2022-12-17T04:41:21.749Z,83.57
2022-12-17T04:46:42.828Z,83.70
2022-12-17T04:52:03.402Z,83.73
2022-12-17T04:57:24.448Z,83.73
2022-12-17T05:02:45.121Z,83.80
2022-12-17T05:08:05.721Z,83.53
2022-12-17T05:13:28.973Z,83.61
2022-12-17T05:18:50.400Z,83.79
2022-12-17T05:24:11.357Z,83.77
2022-12-17T05:29:31.821Z,84.07
2022-12-17T05:34:52.156Z,83.80
2022-12-17T05:40:12.957Z,83.81
2022-12-17T05:45:34.138Z,83.66
2022-12-17T05:50:54.597Z,83.91
2022-12-17T05:56:14.931Z,83.65
2022-12-17T06:01:35.793Z,83.62
2022-12-17T06:06:56.439Z,83.72
2022-12-17T06:12:17.153Z,83.69
2022-12-17T06:17:37.896Z,83.66
2022-12-17T06:22:58.873Z,83.57
2022-12-17T06:28:21.325Z,84.08
2022-12-17T06:33:42.236Z,83.87
2022-12-17T06:39:03.281Z,83.58
2022-12-17T06:44:24.181Z,83.50
2022-12-17T06:49:44.936Z,83.80
2022-12-17T06:55:05.892Z,83.92
2022-12-17T07:00:27.687Z,83.74
2022-12-17T07:06:05.082Z,83.89
2022-12-17T07:11:25.753Z,83.82
2022-12-17T07:16:46.639Z,83.39
2022-12-17T07:22:08.311Z,83.69
2022-12-17T07:27:28.857Z,83.52
2022-12-17T07:32:49.761Z,83.70
2022-12-17T07:38:18.369Z,83.69
2022-12-17T07:43:39.479Z,83.78
2022-12-17T07:49:00.363Z,83.41
2022-12-17T07:54:20.949Z,83.59
2022-12-17T07:59:42.244Z,83.63
2022-12-17T08:05:02.981Z,83.79
2022-12-17T08:10:24.390Z,83.53
2022-12-17T08:15:45.245Z,83.57
2022-12-17T08:21:06.055Z,83.73
2022-12-17T08:26:27.069Z,83.60
2022-12-17T08:31:47.741Z,83.96
2022-12-17T08:37:08.643Z,83.84
2022-12-17T08:42:29.290Z,83.56
2022-12-17T08:47:50.061Z,83.64
2022-12-17T08:53:21.709Z,83.28
2022-12-17T08:58:42.701Z,83.26
2022-12-17T09:04:04.980Z,83.32
2022-12-17T09:09:26.239Z,83.24
2022-12-17T09:14:46.749Z,83.04
2022-12-17T09:20:07.583Z,82.94
2022-12-17T09:25:28.474Z,82.86
2022-12-17T09:30:49.250Z,82.79
2022-12-17T09:36:10.047Z,82.35
2022-12-17T09:41:37.860Z,82.82
2022-12-17T09:47:14.433Z,82.35
2022-12-17T09:53:04.265Z,82.30
2022-12-17T09:58:25.654Z,82.39
2022-12-17T10:03:48.935Z,82.09
2022-12-17T10:09:14.883Z,82.00
2022-12-17T10:14:39.709Z,81.70
2022-12-17T10:20:01.844Z,82.08
2022-12-17T10:25:34.461Z,81.71
2022-12-17T10:30:56.181Z,81.40
2022-12-17T10:36:16.635Z,81.41
2022-12-17T10:41:40.879Z,81.35
2022-12-17T10:47:02.062Z,81.60
2022-12-17T10:52:37.784Z,81.22
2022-12-17T10:58:00.007Z,81.15
2022-12-17T11:03:21.620Z,80.99
2022-12-17T11:08:42.754Z,80.59
2022-12-17T11:14:05.871Z,80.46
2022-12-17T11:19:29.297Z,80.61
2022-12-17T11:24:59.217Z,80.46
2022-12-17T11:30:20.054Z,80.33
2022-12-17T11:35:51.978Z,80.34
2022-12-17T11:41:20.117Z,80.43
2022-12-17T11:46:53.080Z,80.40
2022-12-17T11:52:34.600Z,80.11
2022-12-17T11:58:07.206Z,79.73
2022-12-17T12:03:40.124Z,80.05
2022-12-17T12:09:20.265Z,79.94
2022-12-17T12:15:18.286Z,80.16
2022-12-17T12:20:53.814Z,80.02
2022-12-17T12:26:35.015Z,80.08
2022-12-17T12:32:09.842Z,79.71
2022-12-17T12:37:33.243Z,79.98
2022-12-17T12:43:26.434Z,80.13
2022-12-17T12:49:07.800Z,80.13
2022-12-17T12:54:44.186Z,79.83
2022-12-17T13:00:08.387Z,80.23
2022-12-17T13:05:44.362Z,80.22
2022-12-17T13:10:47.818Z,80.22
2022-12-17T13:15:55.689Z,80.46
2022-12-17T13:21:25.965Z,80.78
2022-12-17T13:26:43.824Z,80.98
2022-12-17T13:32:15.317Z,80.47
2022-12-17T13:37:57.476Z,80.66
2022-12-17T13:42:59.830Z,80.86
2022-12-17T13:48:02.165Z,81.04
2022-12-17T13:53:15.916Z,80.79
2022-12-17T13:58:23.886Z,81.06
2022-12-17T14:03:49.915Z,81.09
2022-12-17T14:08:50.745Z,81.10
2022-12-17T14:13:54.064Z,81.03
2022-12-17T14:18:58.688Z,81.41
2022-12-17T14:24:01.154Z,81.20
2022-12-17T14:29:13.782Z,81.28
2022-12-17T14:34:15.987Z,81.75
2022-12-17T14:39:20.535Z,81.76
2022-12-17T14:44:26.560Z,82.23
2022-12-17T14:49:29.044Z,81.88
2022-12-17T14:54:31.931Z,81.82
2022-12-17T14:59:38.758Z,81.67
2022-12-17T15:04:41.342Z,81.69
2022-12-17T15:09:44.709Z,81.41
2022-12-17T15:14:47.196Z,81.59
2022-12-17T15:19:55.764Z,81.76
2022-12-17T15:24:58.615Z,81.60
2022-12-17T15:30:00.994Z,81.72
2022-12-17T15:35:03.381Z,81.61
2022-12-17T15:40:07.181Z,81.48
2022-12-17T15:45:10.038Z,81.41
2022-12-17T15:50:13.228Z,81.50
2022-12-17T15:55:15.821Z,82.19
2022-12-17T16:00:18.898Z,81.77
2022-12-17T16:05:21.528Z,81.60
2022-12-17T16:10:23.915Z,81.69
2022-12-17T16:15:26.383Z,82.07
2022-12-17T16:20:28.817Z,81.94
2022-12-17T16:25:31.255Z,82.03
2022-12-17T16:30:33.530Z,82.06
2022-12-17T16:35:35.774Z,81.98
2022-12-17T16:40:38.026Z,81.77
2022-12-17T16:45:48.544Z,81.61
2022-12-17T16:50:51.685Z,81.98
2022-12-17T16:55:53.981Z,82.33
2022-12-17T17:00:56.200Z,82.33
2022-12-17T17:06:01.535Z,82.21
2022-12-17T17:11:26.763Z,82.05
2022-12-17T17:16:29.297Z,82.25
2022-12-17T17:21:36.944Z,82.05
2022-12-17T17:26:39.853Z,82.31
2022-12-17T17:37:04.435Z,82.49
2022-12-17T17:42:07.126Z,82.65
2022-12-17T17:47:09.414Z,82.74
2022-12-17T17:52:12.312Z,82.79
2022-12-17T17:57:15.041Z,82.71
2022-12-17T18:02:17.364Z,82.83
2022-12-17T18:07:27.728Z,82.87
2022-12-17T18:12:49.100Z,82.66
2022-12-17T18:17:52.414Z,82.78
2022-12-17T18:22:54.685Z,82.71
2022-12-17T18:27:56.979Z,82.87
2022-12-17T18:32:59.180Z,82.39
2022-12-17T18:38:02.150Z,82.57
2022-12-17T18:43:23.311Z,83.28
2022-12-17T18:48:25.627Z,83.02
2022-12-17T18:53:27.965Z,82.89
2022-12-17T18:58:30.207Z,82.88
2022-12-17T19:03:33.132Z,82.86
2022-12-17T19:08:36.153Z,83.23
2022-12-17T19:13:39.194Z,83.03
2022-12-17T19:18:41.922Z,82.84
2022-12-17T19:23:44.199Z,83.08
2022-12-17T19:28:49.882Z,83.06
2022-12-17T19:34:00.002Z,83.10
2022-12-17T19:39:05.320Z,83.09
2022-12-17T19:44:12.953Z,83.18
2022-12-17T19:49:16.241Z,83.01
2022-12-17T19:54:18.591Z,83.10
2022-12-17T19:59:20.792Z,83.08
2022-12-17T20:04:23.279Z,83.31
2022-12-17T20:09:25.577Z,83.41
2022-12-17T20:14:28.828Z,83.45
2022-12-17T20:19:33.087Z,83.40
2022-12-17T20:24:35.627Z,83.58
2022-12-17T20:29:37.986Z,83.68
2022-12-17T20:34:40.255Z,83.60
2022-12-17T20:45:02.403Z,83.76
2022-12-17T20:50:04.986Z,83.58
2022-12-17T20:55:07.618Z,83.81
2022-12-17T21:00:10.857Z,83.79
2022-12-17T21:05:13.169Z,83.93
2022-12-17T21:10:15.536Z,83.61
2022-12-17T21:15:17.971Z,83.99
2022-12-17T21:20:20.592Z,84.53
2022-12-17T21:25:23.488Z,84.88
2022-12-17T21:30:25.952Z,85.52
2022-12-17T21:35:28.334Z,85.05
2022-12-17T21:40:30.827Z,84.72
2022-12-17T21:45:41.460Z,85.27
2022-12-17T21:50:45.174Z,85.06
2022-12-17T21:55:48.663Z,85.67
2022-12-17T22:00:51.264Z,85.25
2022-12-17T22:05:53.489Z,85.30
2022-12-17T22:10:55.989Z,85.16
2022-12-17T22:15:58.326Z,84.84
2022-12-17T22:21:01.620Z,84.81
2022-12-17T22:26:10.076Z,84.65
2022-12-17T22:31:31.920Z,85.19
2022-12-17T22:38:39.383Z,85.24
2022-12-17T22:44:38.490Z,85.00
2022-12-17T22:47:38.282Z,84.77
2022-12-17T22:52:40.627Z,84.97
2022-12-17T22:57:43.421Z,84.74
2022-12-17T23:02:45.833Z,84.83
2022-12-17T23:07:48.516Z,85.07
2022-12-17T23:12:51.803Z,85.00
2022-12-17T23:17:56.193Z,84.99
2022-12-17T23:22:58.743Z,84.76
2022-12-17T23:28:01.275Z,84.82
2022-12-17T23:33:03.710Z,85.14
2022-12-17T23:38:06.755Z,85.24
2022-12-17T23:43:13.008Z,84.91
2022-12-17T23:48:19.560Z,85.68
2022-12-17T23:53:21.790Z,85.06
2022-12-17T23:58:24.157Z,85.29
